createdAt,value
2018-11-26T00:03:03.227Z,4.1
2018-11-26T00:08:30.346Z,4.1
2018-11-26T00:13:58.721Z,4.1
2018-11-26T00:19:27.261Z,4.1
2018-11-26T00:24:55.500Z,4.1
2018-11-26T00:30:22.901Z,4.1
2018-11-26T00:35:55.376Z,4.1
2018-11-26T00:41:17.942Z,4.1
2018-11-26T00:46:45.135Z,4.1
2018-11-26T00:52:13.505Z,4.1
2018-11-26T00:57:40.975Z,4.1
2018-11-26T01:03:09.338Z,4.1
2018-11-26T01:08:42.766Z,4.1
2018-11-26T01:14:06.120Z,4.2
2018-11-26T01:19:34.811Z,4.2
2018-11-26T01:25:02.934Z,4.2
2018-11-26T01:30:35.719Z,4.2
2018-11-26T01:35:58.735Z,4.2
2018-11-26T01:41:32.157Z,4.1
2018-11-26T01:46:54.803Z,4.1
2018-11-26T01:52:21.967Z,4
2018-11-26T01:57:50.610Z,4
2018-11-26T02:03:23.763Z,3.9
2018-11-26T02:08:46.173Z,3.9
2018-11-26T02:14:13.497Z,3.8
2018-11-26T02:19:41.903Z,3.8
2018-11-26T02:25:10.340Z,3.8
2018-11-26T02:30:38.885Z,3.8
2018-11-26T02:36:06.033Z,3.8
2018-11-26T02:41:33.438Z,3.9
2018-11-26T02:47:06.810Z,3.9
2018-11-26T02:52:29.454Z,3.9
2018-11-26T02:58:01.584Z,3.9
2018-11-26T03:03:23.949Z,3.9
2018-11-26T03:08:57.590Z,3.9
2018-11-26T03:14:19.704Z,3.9
2018-11-26T03:19:47.088Z,3.9
2018-11-26T03:25:15.576Z,3.9
2018-11-26T03:30:42.824Z,3.9
2018-11-26T03:36:10.275Z,3.9
2018-11-26T03:41:38.593Z,3.9
2018-11-26T03:47:07.043Z,3.8
2018-11-26T03:52:40.352Z,3.8
2018-11-26T03:58:02.730Z,3.9
2018-11-26T04:03:31.170Z,3.9
2018-11-26T04:09:04.500Z,3.9
2018-11-26T04:14:31.938Z,3.8
2018-11-26T04:19:54.226Z,3.8
2018-11-26T04:25:21.641Z,3.8
2018-11-26T04:30:49.204Z,3.8
2018-11-26T04:36:22.884Z,3.8
2018-11-26T04:41:46.009Z,3.8
2018-11-26T04:47:13.031Z,3.7
2018-11-26T04:52:41.529Z,3.7
2018-11-26T04:58:09.028Z,3.7
2018-11-26T05:03:37.141Z,3.6
2018-11-26T05:09:04.477Z,3.5
2018-11-26T05:14:32.880Z,3.4
2018-11-26T05:20:00.347Z,3.4
2018-11-26T05:25:28.595Z,3.3
2018-11-26T05:30:56.146Z,3.3
2018-11-26T05:36:23.470Z,3.2
2018-11-26T05:41:50.570Z,3.2
2018-11-26T05:47:19.170Z,3.3
2018-11-26T05:52:47.283Z,3.3
2018-11-26T05:58:20.579Z,3.2
2018-11-26T06:03:48.932Z,3.1
2018-11-26T06:09:17.501Z,3
2018-11-26T06:14:44.549Z,2.9
2018-11-26T06:20:07.854Z,2.8
2018-11-26T06:25:35.216Z,2.7
2018-11-26T06:31:02.384Z,2.6
2018-11-26T06:36:30.917Z,2.6
2018-11-26T06:42:04.236Z,2.6
2018-11-26T06:47:26.255Z,2.5
2018-11-26T06:52:53.844Z,2.5
2018-11-26T06:58:25.831Z,2.4
2018-11-26T07:03:48.046Z,2.4
2018-11-26T07:09:15.335Z,2.4
2018-11-26T07:14:43.810Z,2.3
2018-11-26T07:20:11.852Z,2.3
2018-11-26T07:25:40.101Z,2.3
2018-11-26T07:31:07.631Z,2.3
2018-11-26T07:36:35.588Z,2.3
2018-11-26T07:42:03.118Z,2.3
2018-11-26T07:47:30.749Z,2.3
2018-11-26T07:53:02.595Z,2.2
2018-11-26T07:58:29.579Z,2.2
2018-11-26T08:03:53.333Z,2.2
2018-11-26T08:09:21.339Z,2.2
2018-11-26T08:14:54.264Z,2.2
2018-11-26T08:20:17.000Z,2.3
2018-11-26T08:25:43.735Z,2.3
2018-11-26T08:47:35.812Z,2.6
2018-11-26T08:53:04.366Z,2.6
2018-11-26T08:58:32.660Z,2.7
2018-11-26T09:03:59.683Z,2.7
2018-11-26T09:09:32.729Z,2.8
2018-11-26T09:15:00.580Z,2.8
2018-11-26T09:20:23.737Z,2.9
2018-11-26T09:25:55.940Z,2.9
2018-11-26T09:31:18.241Z,2.9
2018-11-26T09:36:51.577Z,3
2018-11-26T09:42:13.843Z,3
2018-11-26T09:47:47.161Z,3.1
2018-11-26T09:53:09.759Z,3.1
2018-11-26T09:58:43.170Z,3.2
2018-11-26T10:04:06.430Z,3.4
2018-11-26T10:09:38.789Z,3.5
2018-11-26T10:15:07.784Z,3.6
2018-11-26T10:20:29.217Z,3.6
2018-11-26T10:26:01.582Z,3.7
2018-11-26T10:31:30.607Z,3.7
2018-11-26T10:36:57.602Z,3.8
2018-11-26T10:42:20.945Z,3.8
2018-11-26T10:47:48.637Z,3.8
2018-11-26T10:53:16.449Z,3.9
2018-11-26T10:58:50.120Z,4
2018-11-26T11:04:12.234Z,4.1
2018-11-26T11:09:39.623Z,4.3
2018-11-26T11:15:07.344Z,4.3
2018-11-26T11:20:35.097Z,4.3
2018-11-26T11:26:02.873Z,4.3
2018-11-26T11:31:35.358Z,4.3
2018-11-26T11:36:58.128Z,4.2
2018-11-26T11:42:26.329Z,4.1
2018-11-26T11:47:53.504Z,4.1
2018-11-26T11:53:26.344Z,4.1
2018-11-26T11:58:48.277Z,4.2
2018-11-26T12:04:20.717Z,4.2
2018-11-26T12:09:44.772Z,4.2
2018-11-26T12:15:16.775Z,4.1
2018-11-26T12:20:39.160Z,4.1
2018-11-26T12:26:06.359Z,4.2
2018-11-26T12:31:33.842Z,4.3
2018-11-26T12:37:07.172Z,4.3
2018-11-26T12:42:30.562Z,4.4
2018-11-26T12:47:58.242Z,4.3
2018-11-26T12:53:25.592Z,4.3
2018-11-26T12:58:57.770Z,4.3
2018-11-26T13:04:20.271Z,4.3
2018-11-26T13:09:47.816Z,4.2
2018-11-26T13:15:20.936Z,4.2
2018-11-26T13:20:44.285Z,4.2
2018-11-26T13:26:17.691Z,4.2
2018-11-26T13:31:40.098Z,4.2
2018-11-26T13:37:07.428Z,4.2
2018-11-26T13:42:35.056Z,4.2
2018-11-26T13:48:02.197Z,4.1
2018-11-26T13:53:30.607Z,4.1
2018-11-26T13:58:58.958Z,4.1
2018-11-26T14:04:27.369Z,4.1
2018-11-26T14:09:55.815Z,4.1
2018-11-26T14:15:23.399Z,4
2018-11-26T14:20:55.532Z,4
2018-11-26T14:26:17.886Z,4
2018-11-26T14:31:45.566Z,4
2018-11-26T14:37:12.924Z,3.9
2018-11-26T14:42:41.163Z,3.9
2018-11-26T14:48:13.400Z,3.9
2018-11-26T14:53:40.805Z,3.8
2018-11-26T14:59:04.179Z,3.8
2018-11-26T15:04:31.508Z,3.7
2018-11-26T15:10:00.127Z,3.7
2018-11-26T15:15:28.198Z,3.6
2018-11-26T15:21:00.535Z,3.6
2018-11-26T15:26:22.925Z,3.6
2018-11-26T15:37:19.652Z,3.5
2018-11-26T15:42:46.964Z,3.4
2018-11-26T15:48:15.351Z,3.4
2018-11-26T15:53:43.682Z,3.3
2018-11-26T15:59:11.914Z,3.3
2018-11-26T16:04:40.530Z,3.3
2018-11-26T16:10:12.583Z,3.2
2018-11-26T16:15:41.182Z,3.2
2018-11-26T16:21:03.241Z,3.2
2018-11-26T16:26:35.853Z,3.2
2018-11-26T16:31:59.116Z,3.1
2018-11-26T16:37:26.212Z,3.1
2018-11-26T16:42:53.968Z,3.1
2018-11-26T16:48:21.808Z,3
2018-11-26T16:53:50.361Z,3
2018-11-26T16:59:18.854Z,3
2018-11-26T17:04:45.737Z,3
2018-11-26T17:10:18.418Z,3
2018-11-26T17:15:41.393Z,2.9
2018-11-26T17:21:09.937Z,2.9
2018-11-26T17:26:37.989Z,2.9
2018-11-26T17:32:11.602Z,2.9
2018-11-26T17:37:42.720Z,2.9
2018-11-26T17:43:02.211Z,2.9
2018-11-26T17:48:34.279Z,2.9
2018-11-26T17:54:01.526Z,2.8
2018-11-26T17:59:24.862Z,2.8
2018-11-26T18:04:52.118Z,2.8
2018-11-26T18:10:24.689Z,2.8
2018-11-26T18:15:51.750Z,2.8
2018-11-26T18:21:14.057Z,2.8
2018-11-26T18:26:42.598Z,2.8
2018-11-26T18:32:10.991Z,2.8
2018-11-26T18:37:39.520Z,2.8
2018-11-26T18:43:07.369Z,2.8
2018-11-26T18:48:40.864Z,2.8
2018-11-26T18:54:02.889Z,2.8
2018-11-26T18:59:36.209Z,2.8
2018-11-26T19:04:58.733Z,2.8
2018-11-26T19:10:32.095Z,2.8
2018-11-26T19:15:55.323Z,2.8
2018-11-26T19:21:22.344Z,2.7
2018-11-26T19:26:50.612Z,2.7
2018-11-26T19:32:19.183Z,2.7
2018-11-26T19:37:47.235Z,2.7
2018-11-26T19:43:19.555Z,2.7
2018-11-26T19:48:47.878Z,2.7
2018-11-26T19:54:10.365Z,2.7
2018-11-26T19:59:37.409Z,2.7
2018-11-26T20:05:09.684Z,2.7
2018-11-26T20:10:32.986Z,2.6
2018-11-26T20:16:00.739Z,2.6
2018-11-26T20:21:32.631Z,2.5
2018-11-26T20:26:54.892Z,2.5
2018-11-26T20:32:30.276Z,2.5
2018-11-26T20:37:51.455Z,2.5
2018-11-26T20:43:18.693Z,2.4
2018-11-26T20:48:47.003Z,2.4
2018-11-26T20:54:14.259Z,2.3
2018-11-26T20:59:46.496Z,2.2
2018-11-26T21:05:14.692Z,2.1
2018-11-26T21:10:43.290Z,2
2018-11-26T21:16:06.940Z,1.9
2018-11-26T21:21:39.676Z,1.8
2018-11-26T21:27:07.898Z,1.7
2018-11-26T21:32:30.841Z,1.6
2018-11-26T21:37:59.096Z,1.6
2018-11-26T21:43:26.280Z,1.5
2018-11-26T21:48:53.530Z,1.5
2018-11-26T21:54:26.657Z,1.4
2018-11-26T21:59:49.805Z,1.4
2018-11-26T22:05:18.075Z,1.4
2018-11-26T22:10:46.171Z,1.4
2018-11-26T22:16:14.314Z,1.3
2018-11-26T22:21:42.502Z,1.3
2018-11-26T22:27:10.821Z,1.3
2018-11-26T22:32:38.927Z,1.3
2018-11-26T22:38:07.029Z,1.2
2018-11-26T22:43:40.229Z,1.2
2018-11-26T22:49:03.369Z,1.1
2018-11-26T22:54:35.505Z,1.1
2018-11-26T22:59:57.675Z,1
2018-11-26T23:05:24.807Z,1
2018-11-26T23:10:52.932Z,1
2018-11-26T23:16:21.089Z,0.9
2018-11-26T23:21:54.542Z,0.9
2018-11-26T23:27:16.432Z,0.8
2018-11-26T23:32:48.577Z,0.8
2018-11-26T23:38:16.983Z,0.7
2018-11-26T23:43:39.769Z,0.7
2018-11-26T23:49:08.200Z,0.6
2018-11-26T23:54:35.110Z,0.6
